Time;durP1;ratioP1;P1;durP2;ratioP2;P2;SDS_P1;SDS_P2;PMS_P1;PMS_P2;Temp;Humidity;BMP_temperature;BMP_pressure;BME280_temperature;BME280_humidity;BME280_pressure;Samples;Min_cycle;Max_cycle;Signal;HPM_P1;HPM_P2
2022/04/14 00:00:41;;;;;;;6.13;4.13;;;;;;;6.71;56.41;97548.09;5113455;28;20185;-85
2022/04/14 00:03:09;;;;;;;6.10;3.83;;;;;;;6.62;57.47;97538.84;5112247;28;20183;-85
2022/04/14 00:05:36;;;;;;;6.70;4.13;;;;;;;6.67;57.43;97536.19;5112535;28;20199;-90
2022/04/14 00:08:04;;;;;;;6.40;4.80;;;;;;;6.80;57.51;97573.66;5104977;28;20227;-92
2022/04/14 00:10:31;;;;;;;5.97;4.83;;;;;;;6.96;57.45;97577.56;5106501;28;20234;-92
2022/04/14 00:13:00;;;;;;;5.70;3.73;;;;;;;6.91;57.16;97546.75;5088442;28;20192;-85
2022/04/14 00:15:28;;;;;;;5.87;4.20;;;;;;;6.96;57.03;97538.94;5105884;28;20544;-92
2022/04/14 00:17:55;;;;;;;6.43;4.17;;;;;;;7.06;57.15;97558.44;5104394;28;20198;-88
2022/04/14 00:20:23;;;;;;;8.83;4.10;;;;;;;6.87;57.09;97545.16;5098194;28;20192;-92
2022/04/14 00:22:50;;;;;;;4.57;3.70;;;;;;;6.52;58.17;97557.94;5092248;28;20200;-92
2022/04/14 00:25:19;;;;;;;5.80;4.33;;;;;;;6.13;58.11;97536.50;5055406;28;20226;-93
2022/04/14 00:27:48;;;;;;;6.80;3.87;;;;;;;5.68;59.13;97515.09;5073524;28;20325;-93
2022/04/14 00:30:15;;;;;;;4.57;3.77;;;;;;;5.72;59.18;97526.13;5090457;28;20787;-92
2022/04/14 00:32:43;;;;;;;7.07;3.90;;;;;;;6.11;58.77;97563.97;5101173;28;20260;-88
2022/04/14 00:35:10;;;;;;;4.63;3.87;;;;;;;5.81;59.25;97500.28;5101365;28;20190;-95
2022/04/14 00:37:39;;;;;;;6.10;3.50;;;;;;;6.40;59.21;97571.94;5091205;28;20224;-91
2022/04/14 00:40:06;;;;;;;5.60;3.93;;;;;;;6.42;57.64;97552.16;5091602;28;20184;-95
2022/04/14 00:42:33;;;;;;;4.47;3.63;;;;;;;6.04;58.39;97544.38;5090265;28;20740;-95
2022/04/14 00:45:02;;;;;;;4.03;3.23;;;;;;;6.00;59.08;97545.31;5092007;28;20191;-94
2022/04/14 00:47:29;;;;;;;4.83;3.77;;;;;;;6.26;58.87;97553.38;5071894;28;20222;-94
2022/04/14 00:49:57;;;;;;;5.07;3.50;;;;;;;6.09;58.10;97539.16;5072977;28;20199;-93
2022/04/14 00:52:25;;;;;;;4.07;3.53;;;;;;;6.13;59.53;97579.34;5071358;28;20191;-92
2022/04/14 00:54:53;;;;;;;5.47;4.07;;;;;;;5.90;59.59;97554.09;5073736;28;20681;-89
2022/04/14 00:57:21;;;;;;;7.00;4.00;;;;;;;5.51;60.43;97534.25;5091557;28;20673;-92
2022/04/14 00:59:49;;;;;;;5.90;4.03;;;;;;;5.78;61.05;97567.13;5090032;28;20248;-89
2022/04/14 01:02:17;;;;;;;4.60;3.73;;;;;;;5.65;60.50;97529.69;5073027;28;20194;-85
2022/04/14 01:04:47;;;;;;;6.87;4.43;;;;;;;5.62;61.45;97529.75;5088933;28;20612;-90
2022/04/14 01:07:14;;;;;;;5.40;3.90;;;;;;;5.80;61.13;97555.09;5072326;28;20226;-89
2022/04/14 01:09:42;;;;;;;6.47;4.33;;;;;;;5.74;61.39;97527.81;5069978;28;20195;-88
2022/04/14 01:12:14;;;;;;;6.30;4.60;;;;;;;6.17;59.14;97540.69;5090567;28;21091;-89
2022/04/14 01:14:41;;;;;;;8.47;4.53;;;;;;;6.30;59.38;97549.84;5075505;28;20265;-85
2022/04/14 01:17:09;;;;;;;6.00;4.10;;;;;;;6.38;58.99;97563.41;5075954;28;20195;-85
2022/04/14 01:19:39;;;;;;;7.67;4.40;;;;;;;6.40;58.27;97568.50;5096609;28;20180;-84
2022/04/14 01:22:21;;;;;;;6.70;4.50;;;;;;;6.41;59.35;97572.75;5090561;28;20670;-85
2022/04/14 01:24:55;;;;;;;7.47;4.43;;;;;;;6.31;58.16;97543.81;5090355;28;20232;-85
2022/04/14 01:27:24;;;;;;;5.87;3.93;;;;;;;6.28;59.21;97574.75;5088883;28;20230;-88
2022/04/14 01:29:52;;;;;;;6.47;4.67;;;;;;;6.16;58.28;97538.97;5087737;28;20192;-85
2022/04/14 01:32:20;;;;;;;7.83;4.80;;;;;;;6.41;58.80;97577.91;5105473;28;20584;-85
2022/04/14 01:34:51;;;;;;;6.40;4.40;;;;;;;6.32;58.40;97554.97;5090055;28;20214;-87
2022/04/14 01:37:18;;;;;;;5.87;4.00;;;;;;;6.19;57.69;97556.94;5090502;28;20204;-92
2022/04/14 01:39:46;;;;;;;5.27;3.90;;;;;;;6.15;57.59;97549.31;5088479;28;20192;-87
2022/04/14 01:42:14;;;;;;;7.10;4.00;;;;;;;6.38;57.74;97555.69;5089204;28;20188;-89
2022/04/14 01:44:41;;;;;;;4.53;3.83;;;;;;;6.41;57.59;97557.31;5088291;28;20183;-85
2022/04/14 01:47:10;;;;;;;4.20;3.60;;;;;;;6.30;58.08;97547.28;5070752;28;20228;-87
2022/04/14 01:49:37;;;;;;;6.63;3.77;;;;;;;6.05;57.41;97540.94;5088732;28;20202;-86
2022/04/14 01:52:05;;;;;;;5.83;4.13;;;;;;;5.87;58.17;97533.59;5036586;28;20208;-86
2022/04/14 01:54:32;;;;;;;4.80;3.53;;;;;;;5.56;59.63;97547.84;5072978;28;20199;-90
2022/04/14 01:57:02;;;;;;;5.73;4.27;;;;;;;5.50;60.98;97530.81;5072354;28;20270;-86
2022/04/14 01:59:30;;;;;;;5.33;4.17;;;;;;;5.60;61.41;97562.34;5075557;28;20227;-88
2022/04/14 02:01:57;;;;;;;8.00;4.17;;;;;;;5.44;61.44;97581.47;5107723;28;20182;-87
2022/04/14 02:04:26;;;;;;;4.80;3.70;;;;;;;5.27;62.50;97586.03;5100212;28;20216;-94
2022/04/14 02:06:53;;;;;;;6.47;3.80;;;;;;;5.15;62.95;97574.25;5074950;28;20212;-92
2022/04/14 02:09:20;;;;;;;10.27;5.00;;;;;;;5.00;63.04;97581.31;5090529;28;20197;-94
2022/04/14 02:11:47;;;;;;;5.13;3.83;;;;;;;4.63;64.55;97558.78;5091031;28;20178;-92
2022/04/14 02:14:14;;;;;;;5.53;4.13;;;;;;;4.51;63.88;97542.72;5071424;28;20193;-95
2022/04/14 02:16:42;;;;;;;5.23;3.53;;;;;;;4.66;64.00;97543.34;5056518;28;20657;-94
2022/04/14 02:19:09;;;;;;;7.23;4.03;;;;;;;4.88;63.62;97572.94;5091706;28;20594;-96
2022/04/14 02:21:38;;;;;;;6.30;3.97;;;;;;;4.93;63.64;97581.41;5096504;28;20187;-95
2022/04/14 02:24:05;;;;;;;5.73;4.37;;;;;;;4.50;63.33;97523.91;5094552;28;20248;-93
2022/04/14 02:26:33;;;;;;;5.53;3.73;;;;;;;4.60;64.24;97574.19;5092197;28;20193;-91
2022/04/14 02:29:01;;;;;;;5.93;4.70;;;;;;;4.63;64.53;97583.56;5106220;28;20202;-87
2022/04/14 02:31:28;;;;;;;5.40;3.63;;;;;;;4.62;64.36;97571.59;5110749;28;20685;-96
2022/04/14 02:33:55;;;;;;;5.63;3.60;;;;;;;4.79;63.52;97565.38;5101042;28;20275;-96
2022/04/14 02:36:24;;;;;;;6.37;3.80;;;;;;;5.23;62.75;97576.69;5075412;28;20199;-94
2022/04/14 02:38:50;;;;;;;7.17;4.73;;;;;;;5.27;61.50;97552.66;5085836;28;20197;-92
2022/04/14 02:41:18;;;;;;;6.13;4.37;;;;;;;5.39;62.05;97561.00;5106304;28;20179;-95
2022/04/14 02:43:45;;;;;;;6.73;4.40;;;;;;;5.17;61.77;97535.72;5101251;28;20195;-93
2022/04/14 02:46:13;;;;;;;6.50;4.23;;;;;;;5.39;61.65;97578.13;5074135;28;20226;-90
2022/04/14 02:48:40;;;;;;;7.27;4.90;;;;;;;5.20;62.25;97584.41;5091570;28;20225;-93
2022/04/14 02:51:07;;;;;;;8.77;5.23;;;;;;;4.94;63.22;97565.16;5101973;28;20200;-96
2022/04/14 02:53:34;;;;;;;8.13;5.40;;;;;;;4.88;63.83;97584.94;5096339;28;20261;-96
2022/04/14 02:56:02;;;;;;;8.73;4.70;;;;;;;4.83;64.23;97587.56;5106237;28;20219;-94
2022/04/14 02:58:31;;;;;;;6.20;4.83;;;;;;;4.82;64.25;97590.97;5112226;28;20249;-83
2022/04/14 03:00:59;;;;;;;6.83;4.70;;;;;;;4.33;64.58;97548.94;5095308;28;20250;-84
2022/04/14 03:03:28;;;;;;;9.67;5.37;;;;;;;3.93;65.75;97542.63;5104482;28;20186;-85
2022/04/14 03:05:55;;;;;;;9.27;5.67;;;;;;;3.96;66.01;97568.19;5103161;28;20181;-84
2022/04/14 03:08:23;;;;;;;8.17;5.27;;;;;;;4.14;65.93;97604.69;5101019;28;20228;-84
2022/04/14 03:10:50;;;;;;;8.80;5.47;;;;;;;4.20;65.14;97588.41;5106900;28;20252;-87
2022/04/14 03:13:20;;;;;;;8.60;5.53;;;;;;;4.00;65.74;97568.13;5092823;28;20201;-86
2022/04/14 03:15:49;;;;;;;9.43;5.33;;;;;;;3.94;65.71;97570.78;5071510;28;20187;-86
2022/04/14 03:18:17;;;;;;;9.90;4.97;;;;;;;3.82;66.52;97564.94;5111006;28;20531;-86
2022/04/14 03:20:44;;;;;;;7.20;5.03;;;;;;;3.71;66.95;97580.41;5074311;28;20781;-83
2022/04/14 03:23:12;;;;;;;10.27;5.03;;;;;;;3.82;66.73;97598.22;5108837;28;20182;-93
2022/04/14 03:25:40;;;;;;;9.47;5.43;;;;;;;3.65;66.84;97584.75;5098203;28;20228;-94
2022/04/14 03:28:07;;;;;;;7.43;5.17;;;;;;;3.74;67.45;97615.41;5091125;28;20212;-89
2022/04/14 03:30:35;;;;;;;12.63;5.70;;;;;;;3.51;67.61;97579.75;5081231;28;20252;-92
2022/04/14 03:33:04;;;;;;;9.77;6.13;;;;;;;3.73;66.85;97606.03;5082700;28;20189;-92
2022/04/14 03:35:31;;;;;;;11.10;6.37;;;;;;;3.83;66.35;97584.56;5071447;28;20247;-90
2022/04/14 03:37:58;;;;;;;12.33;6.77;;;;;;;4.02;65.91;97568.09;5095545;28;20193;-88
2022/04/14 03:40:25;;;;;;;17.10;8.87;;;;;;;4.37;65.25;97606.97;5072884;28;20195;-89
2022/04/14 03:42:55;;;;;;;18.73;9.97;;;;;;;3.95;65.10;97516.13;5091982;28;20215;-91
2022/04/14 03:45:22;;;;;;;29.03;12.33;;;;;;;4.49;64.80;97619.66;5090918;28;20209;-91
2022/04/14 03:47:49;;;;;;;32.37;14.50;;;;;;;4.55;64.80;97611.91;5092684;28;20213;-90
2022/04/14 03:50:16;;;;;;;30.77;13.63;;;;;;;4.30;64.80;97573.75;5091833;28;20188;-88
2022/04/14 03:52:43;;;;;;;33.20;13.93;;;;;;;4.54;65.36;97611.91;5094527;28;20189;-90
2022/04/14 03:55:10;;;;;;;27.20;11.37;;;;;;;4.29;64.96;97552.41;5073773;28;20192;-89
2022/04/14 03:57:37;;;;;;;20.30;10.70;;;;;;;4.67;64.63;97601.47;5073583;28;20189;-93
2022/04/14 04:00:06;;;;;;;15.60;8.13;;;;;;;4.72;64.26;97584.28;5092415;28;20187;-88
2022/04/14 04:02:36;;;;;;;19.40;7.93;;;;;;;4.44;65.02;97587.25;5072563;28;20636;-86
2022/04/14 04:05:05;;;;;;;13.87;7.57;;;;;;;4.64;64.44;97585.25;5091899;28;20231;-93
2022/04/14 04:07:34;;;;;;;15.23;7.67;;;;;;;4.84;64.26;97606.38;5090385;28;20213;-90
2022/04/14 04:10:07;;;;;;;16.17;8.50;;;;;;;4.76;63.56;97588.50;5093510;28;20198;-87
2022/04/14 04:12:34;;;;;;;19.87;7.77;;;;;;;5.06;61.73;97645.38;5056766;28;20199;-88
2022/04/14 04:15:02;;;;;;;8.70;5.40;;;;;;;5.16;61.78;97641.81;5092480;28;20197;-88
2022/04/14 04:17:30;;;;;;;12.97;5.90;;;;;;;5.12;60.95;97643.59;5074939;28;20198;-93
2022/04/14 04:19:59;;;;;;;8.47;5.87;;;;;;;4.85;60.61;97621.72;5073506;28;20209;-90
2022/04/14 04:22:29;;;;;;;8.90;5.20;;;;;;;4.47;63.12;97623.13;5093185;28;20219;-86
2022/04/14 04:24:59;;;;;;;10.17;6.30;;;;;;;4.28;62.81;97609.69;5080102;28;20697;-85
2022/04/14 04:27:30;;;;;;;12.20;7.17;;;;;;;4.53;62.43;97644.41;5103087;28;20213;-86
2022/04/14 04:29:59;;;;;;;14.60;8.10;;;;;;;4.28;62.73;97596.84;5096918;28;20212;-88
2022/04/14 04:32:33;;;;;;;21.07;9.73;;;;;;;4.42;63.41;97625.72;5095526;28;20240;-88
2022/04/14 04:35:03;;;;;;;15.63;7.63;;;;;;;4.62;63.02;97626.31;5073159;28;20200;-89
2022/04/14 04:37:31;;;;;;;14.33;7.20;;;;;;;4.99;61.85;97648.94;5091149;28;20182;-93
2022/04/14 04:39:58;;;;;;;17.97;7.90;;;;;;;5.24;61.82;97635.69;5057925;28;20233;-90
2022/04/14 04:42:25;;;;;;;18.63;10.13;;;;;;;5.26;60.67;97612.56;5099729;28;20190;-87
2022/04/14 04:44:52;;;;;;;35.37;14.10;;;;;;;5.85;59.64;97620.16;5108103;28;20198;-85
2022/04/14 04:47:23;;;;;;;55.70;21.10;;;;;;;6.12;58.63;97634.22;5104084;28;20189;-90
2022/04/14 04:49:56;;;;;;;65.00;24.83;;;;;;;6.35;58.81;97620.03;5071540;28;20212;-87
2022/04/14 04:52:23;;;;;;;58.37;26.83;;;;;;;6.70;56.22;97615.91;5088858;28;20210;-88
2022/04/14 04:54:50;;;;;;;65.83;27.63;;;;;;;7.10;56.64;97650.19;5115620;28;20218;-89
2022/04/14 04:57:17;;;;;;;67.37;26.60;;;;;;;7.29;54.64;97662.59;5113804;28;20218;-85
2022/04/14 04:59:46;;;;;;;65.17;27.73;;;;;;;7.34;55.39;97654.78;5110686;28;20190;-84
2022/04/14 05:02:13;;;;;;;69.30;27.40;;;;;;;7.06;55.06;97586.75;5113758;28;20189;-85
2022/04/14 05:04:40;;;;;;;66.47;25.97;;;;;;;7.72;54.30;97649.56;5111602;28;20181;-80
2022/04/14 05:07:07;;;;;;;66.60;29.27;;;;;;;7.79;55.12;97666.56;5085357;28;20191;-85
2022/04/14 05:09:41;;;;;;;66.13;28.87;;;;;;;7.51;55.27;97647.50;5113698;28;20216;-86
2022/04/14 05:12:10;;;;;;;69.13;27.60;;;;;;;7.65;54.94;97671.19;5096930;28;20193;-86
2022/04/14 05:14:39;;;;;;;61.33;26.13;;;;;;;7.19;55.97;97601.06;5093223;28;20219;-84
2022/04/14 05:17:09;;;;;;;54.37;24.07;;;;;;;7.85;54.84;97668.97;5091981;28;20671;-88
2022/04/14 05:19:38;;;;;;;61.73;24.67;;;;;;;7.72;55.33;97640.97;5090535;28;20227;-88
2022/04/14 05:22:06;;;;;;;55.23;24.90;;;;;;;8.00;55.01;97675.47;5097067;28;20189;-85
2022/04/14 05:24:34;;;;;;;54.03;22.03;;;;;;;7.63;56.04;97664.38;5084503;28;20335;-86
2022/04/14 05:27:02;;;;;;;42.83;19.53;;;;;;;7.59;56.92;97685.97;5055005;28;20187;-84
2022/04/14 05:29:31;;;;;;;37.60;17.20;;;;;;;7.60;56.40;97678.22;5089388;28;20303;-86
2022/04/14 05:32:00;;;;;;;41.60;17.40;;;;;;;7.46;57.14;97649.31;5090272;28;20195;-86
2022/04/14 05:34:29;;;;;;;40.20;18.63;;;;;;;7.80;55.65;97650.22;5089253;28;20253;-86
2022/04/14 05:36:56;;;;;;;44.57;19.53;;;;;;;8.03;56.34;97667.69;5090427;28;20180;-84
2022/04/14 05:39:23;;;;;;;45.07;16.73;;;;;;;7.90;55.10;97619.88;5070577;28;20193;-86
2022/04/14 05:41:52;;;;;;;41.17;17.23;;;;;;;8.30;56.17;97687.63;5090998;28;20218;-88
2022/04/14 05:44:19;;;;;;;40.73;17.57;;;;;;;8.12;55.18;97639.06;5072292;28;20290;-85
2022/04/14 05:46:46;;;;;;;37.87;17.33;;;;;;;8.64;55.33;97679.81;5071500;28;20197;-88
2022/04/14 05:49:15;;;;;;;41.10;17.90;;;;;;;8.78;54.41;97680.25;5071154;28;20216;-88
2022/04/14 05:51:42;;;;;;;27.87;13.73;;;;;;;8.77;54.79;97648.44;5071435;28;20204;-87
2022/04/14 05:54:09;;;;;;;24.80;11.17;;;;;;;9.23;53.05;97684.13;5072153;28;20215;-86
2022/04/14 05:56:48;;;;;;;17.00;9.27;;;;;;;9.41;51.35;97636.16;5088797;28;20206;-89
2022/04/14 05:59:18;;;;;;;17.90;9.53;;;;;;;9.59;52.03;97689.88;5090187;28;20190;-86
2022/04/14 06:01:51;;;;;;;21.00;10.67;;;;;;;9.88;51.00;97682.03;5053778;28;20246;-86
2022/04/14 06:04:21;;;;;;;25.83;12.30;;;;;;;10.04;50.04;97669.41;5090102;28;20265;-86
2022/04/14 06:06:50;;;;;;;33.10;16.40;;;;;;;10.25;49.39;97666.13;5070626;28;20256;-87
2022/04/14 06:09:17;;;;;;;37.57;17.60;;;;;;;10.31;48.67;97673.69;5087903;28;20605;-86
2022/04/14 06:11:46;;;;;;;44.33;18.50;;;;;;;10.20;49.11;97624.06;5071099;28;20201;-85
2022/04/14 06:14:13;;;;;;;44.13;19.47;;;;;;;10.18;49.26;97641.38;5087638;28;20635;-85
2022/04/14 06:16:40;;;;;;;43.83;18.17;;;;;;;10.35;49.30;97657.16;5089560;28;20684;-94
2022/04/14 06:19:08;;;;;;;37.03;15.53;;;;;;;10.57;48.25;97671.88;5080888;28;20581;-93
2022/04/14 06:21:35;;;;;;;29.43;13.50;;;;;;;10.98;47.74;97662.63;5087035;28;20200;-94
2022/04/14 06:24:03;;;;;;;28.77;14.13;;;;;;;10.90;46.35;97638.72;5055317;28;20361;-86
2022/04/14 06:26:34;;;;;;;26.47;12.63;;;;;;;11.01;46.01;97623.63;5070415;28;20295;-87
2022/04/14 06:29:03;;;;;;;30.07;12.53;;;;;;;11.29;47.15;97655.34;5092234;28;20236;-85
2022/04/14 06:31:30;;;;;;;24.07;10.97;;;;;;;11.43;45.41;97666.03;5094593;28;20206;-84
2022/04/14 06:34:02;;;;;;;31.40;10.40;;;;;;;11.57;44.92;97669.81;5091094;28;20198;-85
2022/04/14 06:36:31;;;;;;;19.37;9.87;;;;;;;11.59;45.22;97648.13;5054176;28;20613;-84
2022/04/14 06:39:01;;;;;;;18.50;10.30;;;;;;;11.74;44.12;97665.69;5056564;28;20198;-86
2022/04/14 06:41:32;;;;;;;21.80;10.90;;;;;;;12.06;43.00;97662.63;5088950;28;20506;-86
2022/04/14 06:44:01;;;;;;;19.37;9.27;;;;;;;11.91;41.82;97628.69;5089009;28;20571;-88
2022/04/14 06:46:30;;;;;;;17.17;9.40;;;;;;;12.23;42.52;97648.94;5090783;28;20184;-93
2022/04/14 06:48:58;;;;;;;18.03;8.40;;;;;;;12.60;42.10;97668.97;5058777;28;20249;-94
2022/04/14 06:51:27;;;;;;;13.87;6.67;;;;;;;12.55;40.47;97666.56;5078695;28;20673;-86
2022/04/14 06:53:55;;;;;;;14.07;6.13;;;;;;;12.76;40.25;97639.63;5080480;28;20638;-96
2022/04/14 06:56:25;;;;;;;12.83;7.00;;;;;;;12.99;40.17;97646.41;5077876;28;20599;-87
2022/04/14 06:58:54;;;;;;;17.70;6.93;;;;;;;13.11;39.76;97645.03;5089476;28;20627;-88
2022/04/14 07:01:23;;;;;;;14.70;7.77;;;;;;;13.24;39.71;97664.34;5089477;28;20189;-86
2022/04/14 07:03:53;;;;;;;10.93;6.70;;;;;;;13.27;38.83;97639.03;5089357;28;20234;-85
2022/04/14 07:06:21;;;;;;;9.77;5.67;;;;;;;13.17;38.33;97621.34;5069961;28;20269;-87
2022/04/14 07:08:51;;;;;;;13.20;6.00;;;;;;;13.80;37.73;97678.13;5092322;28;20721;-86
2022/04/14 07:11:22;;;;;;;9.27;5.33;;;;;;;14.04;37.52;97671.72;5073956;28;20184;-86
2022/04/14 07:13:52;;;;;;;5.80;3.93;;;;;;;14.13;35.81;97671.28;5074501;28;20242;-88
2022/04/14 07:16:24;;;;;;;10.87;4.40;;;;;;;14.00;34.62;97654.56;5056958;28;20196;-86
2022/04/14 07:18:53;;;;;;;9.30;4.23;;;;;;;13.49;34.06;97577.28;5076618;28;20261;-86
2022/04/14 07:21:20;;;;;;;5.60;3.50;;;;;;;14.22;33.38;97683.00;5099455;28;20197;-88
2022/04/14 07:23:51;;;;;;;10.90;4.93;;;;;;;14.20;35.97;97672.63;5091556;28;20183;-87
2022/04/14 07:26:20;;;;;;;10.10;5.87;;;;;;;14.34;34.14;97661.56;5092523;28;20216;-86
2022/04/14 07:28:47;;;;;;;9.60;4.40;;;;;;;14.51;33.94;97654.56;5056882;28;20240;-86
2022/04/14 07:31:16;;;;;;;14.53;7.70;;;;;;;14.50;34.11;97639.88;5093633;28;20192;-87
2022/04/14 07:33:44;;;;;;;9.73;5.60;;;;;;;14.76;34.44;97682.81;5073045;28;20198;-87
2022/04/14 07:36:18;;;;;;;11.73;5.07;;;;;;;14.42;33.56;97607.31;5093636;28;20254;-85
2022/04/14 07:39:04;;;;;;;8.33;4.70;;;;;;;14.81;33.02;97646.06;5092506;28;20227;-87
2022/04/14 07:41:32;;;;;;;5.93;3.97;;;;;;;15.05;32.70;97660.41;5094401;28;20189;-92
2022/04/14 07:44:04;;;;;;;8.93;4.00;;;;;;;15.17;31.74;97662.34;5079068;28;20330;-91
2022/04/14 07:46:38;;;;;;;7.53;3.30;;;;;;;15.20;30.97;97677.84;5096772;28;20814;-90
2022/04/14 07:49:09;;;;;;;8.60;4.17;;;;;;;15.26;31.43;97675.75;5096077;28;20595;-86
2022/04/14 07:51:37;;;;;;;4.70;2.90;;;;;;;14.74;30.90;97550.84;5095491;28;20197;-95
2022/04/14 07:54:05;;;;;;;4.80;3.17;;;;;;;15.34;31.02;97677.94;5078461;28;20211;-89
2022/04/14 07:56:33;;;;;;;6.57;3.93;;;;;;;15.21;31.74;97680.38;5097783;28;20189;-95
2022/04/14 07:59:04;;;;;;;4.97;2.60;;;;;;;15.03;31.04;97659.66;5098040;28;20270;-91
2022/04/14 08:01:32;;;;;;;5.07;3.60;;;;;;;15.10;29.82;97655.81;5045866;28;20197;-95
2022/04/14 08:04:05;;;;;;;4.20;2.87;;;;;;;14.94;30.49;97673.19;5096594;28;20203;-92
2022/04/14 08:06:45;;;;;;;5.73;3.23;;;;;;;15.01;30.82;97636.25;5096096;28;20231;-87
2022/04/14 08:09:32;;;;;;;5.17;3.33;;;;;;;14.77;30.99;97580.22;5075724;28;20227;-87
2022/04/14 08:12:04;;;;;;;4.67;3.10;;;;;;;14.95;30.49;97618.34;5072171;28;20591;-87
2022/04/14 08:14:31;;;;;;;5.27;3.37;;;;;;;15.50;30.33;97671.00;5091094;28;20215;-87
2022/04/14 08:17:04;;;;;;;7.53;3.67;;;;;;;15.47;30.34;97660.72;5090204;28;20635;-88
2022/04/14 08:19:32;;;;;;;7.07;3.97;;;;;;;15.61;29.77;97658.19;5076082;28;20189;-84
2022/04/14 08:22:02;;;;;;;5.73;3.13;;;;;;;15.84;29.69;97669.97;5095554;28;20741;-85
2022/04/14 08:24:34;;;;;;;8.03;3.70;;;;;;;15.92;29.68;97663.38;5073886;28;20232;-84
2022/04/14 08:27:05;;;;;;;10.60;5.00;;;;;;;15.83;30.18;97626.47;5073766;28;20193;-86
2022/04/14 08:29:43;;;;;;;6.47;3.70;;;;;;;16.10;30.28;97640.56;5074079;28;20216;-89
2022/04/14 08:32:12;;;;;;;5.77;3.03;;;;;;;16.04;29.96;97656.59;5091665;28;20620;-86
2022/04/14 08:34:45;;;;;;;6.83;3.00;;;;;;;16.05;30.33;97643.44;5073606;28;20265;-90
2022/04/14 08:37:14;;;;;;;6.17;3.47;;;;;;;15.92;30.16;97652.94;5095109;28;20238;-92
2022/04/14 08:39:44;;;;;;;8.40;3.57;;;;;;;15.95;30.35;97631.84;5096593;28;20718;-91
2022/04/14 08:42:15;;;;;;;4.20;3.07;;;;;;;16.21;30.14;97657.31;5082811;28;20185;-96
2022/04/14 08:45:03;;;;;;;6.13;3.63;;;;;;;16.24;29.97;97623.16;5082806;28;20226;-94
2022/04/14 08:47:36;;;;;;;6.93;3.83;;;;;;;16.26;29.66;97616.06;5100971;28;20649;-90
2022/04/14 08:50:18;;;;;;;3.27;2.70;;;;;;;15.83;29.17;97571.63;5081579;28;20236;-89
2022/04/14 08:52:46;;;;;;;3.70;2.83;;;;;;;15.86;29.91;97600.19;5080681;28;20224;-94
2022/04/14 08:55:14;;;;;;;5.03;3.00;;;;;;;15.95;30.17;97618.78;5077296;28;20272;-86
2022/04/14 08:57:45;;;;;;;3.53;2.60;;;;;;;15.72;29.56;97593.16;5092214;28;20610;-86
2022/04/14 09:00:17;;;;;;;6.30;3.37;;;;;;;15.50;29.68;97542.25;5097684;28;20215;-85
2022/04/14 09:02:46;;;;;;;4.13;3.03;;;;;;;16.24;29.24;97633.59;5083952;28;20194;-85
2022/04/14 09:05:18;;;;;;;4.40;3.30;;;;;;;16.17;29.11;97606.16;5073951;28;20658;-86
2022/04/14 09:07:54;;;;;;;5.97;3.90;;;;;;;15.85;29.67;97569.75;5091692;28;20213;-87
2022/04/14 09:10:24;;;;;;;12.60;6.27;;;;;;;16.02;29.58;97612.28;5095167;28;20222;-87
2022/04/14 09:12:54;;;;;;;7.87;4.10;;;;;;;16.27;29.43;97622.97;5092514;28;20219;-86
2022/04/14 09:15:27;;;;;;;6.87;3.20;;;;;;;16.30;29.33;97580.09;5090179;28;20198;-86
2022/04/14 09:17:57;;;;;;;4.60;3.03;;;;;;;16.29;29.09;97592.34;5090865;28;20256;-86
2022/04/14 09:20:42;;;;;;;3.80;3.07;;;;;;;16.50;29.19;97586.81;5078472;28;20250;-84
2022/04/14 09:23:27;;;;;;;5.33;3.07;;;;;;;16.75;28.77;97592.22;5102883;28;20186;-87
2022/04/14 09:26:14;;;;;;;9.20;3.63;;;;;;;16.82;29.50;97577.81;5112331;28;20293;-88
2022/04/14 09:29:04;;;;;;;5.07;4.10;;;;;;;16.83;29.07;97610.91;5093389;28;20835;-90
2022/04/14 09:31:50;;;;;;;4.30;3.10;;;;;;;16.80;29.04;97595.38;5083699;28;20194;-86
2022/04/14 09:37:40;;;;;;;4.63;2.77;;;;;;;16.84;28.63;97602.09;5091931;28;20196;-87
2022/04/14 09:40:14;;;;;;;5.43;3.07;;;;;;;16.76;29.39;97570.34;5058945;28;20239;-85
2022/04/14 09:42:44;;;;;;;7.67;3.50;;;;;;;16.90;28.58;97586.88;5074344;28;20258;-86
2022/04/14 09:45:28;;;;;;;4.83;3.07;;;;;;;16.93;28.59;97588.47;5072730;28;20192;-85
2022/04/14 09:48:12;;;;;;;10.43;4.33;;;;;;;17.16;28.84;97568.69;5056192;28;20195;-87
2022/04/14 09:50:50;;;;;;;5.50;4.00;;;;;;;17.46;28.45;97585.91;5089319;28;20236;-87
2022/04/14 09:53:21;;;;;;;5.47;3.17;;;;;;;17.63;27.86;97580.44;5090776;28;20199;-85
2022/04/14 09:55:59;;;;;;;4.37;3.17;;;;;;;17.82;27.57;97578.31;5089205;28;20188;-85
2022/04/14 09:59:07;;;;;;;4.93;3.23;;;;;;;17.82;27.42;97572.22;5073955;28;20637;-87
2022/04/14 10:02:15;;;;;;;5.73;3.20;;;;;;;17.76;27.63;97578.69;5093729;28;20187;-85
2022/04/14 10:04:47;;;;;;;4.00;2.97;;;;;;;17.59;27.49;97551.94;5078781;28;20286;-89
2022/04/14 10:07:20;;;;;;;6.83;3.70;;;;;;;17.85;27.13;97564.16;5054876;28;20701;-84
2022/04/14 10:09:50;;;;;;;4.60;2.90;;;;;;;17.44;27.57;97572.06;5090724;28;20222;-84
2022/04/14 10:12:31;;;;;;;3.93;2.90;;;;;;;17.43;27.76;97565.16;5071200;28;20282;-86
2022/04/14 10:15:08;;;;;;;5.07;2.97;;;;;;;17.38;27.25;97546.28;5090713;28;20586;-87
2022/04/14 10:17:43;;;;;;;5.20;2.90;;;;;;;17.49;27.14;97559.56;5036688;28;20263;-87
2022/04/14 10:20:25;;;;;;;5.23;3.27;;;;;;;17.64;26.70;97550.69;5058176;28;20504;-84
2022/04/14 10:22:52;;;;;;;5.40;3.10;;;;;;;17.62;26.85;97541.28;5083828;28;20189;-87
2022/04/14 10:25:24;;;;;;;5.57;3.37;;;;;;;17.62;27.24;97549.94;5072339;28;20690;-85
2022/04/14 10:27:56;;;;;;;8.17;4.67;;;;;;;17.68;27.05;97549.53;5092114;28;20188;-86
2022/04/14 10:30:44;;;;;;;4.40;3.10;;;;;;;17.60;27.69;97556.22;5051043;28;20224;-88
2022/04/14 10:33:22;;;;;;;4.27;2.53;;;;;;;17.79;28.65;97551.44;5059403;28;20286;-87
2022/04/14 10:36:18;;;;;;;5.80;3.00;;;;;;;17.77;28.17;97543.69;5072148;28;20536;-85
2022/04/14 10:39:43;;;;;;;5.60;3.40;;;;;;;18.02;27.98;97552.53;5060178;28;20191;-88
2022/04/14 10:43:04;;;;;;;4.60;3.13;;;;;;;18.09;27.83;97556.44;5070188;28;20252;-89
2022/04/14 10:45:51;;;;;;;5.20;2.73;;;;;;;17.64;28.00;97487.81;5083915;28;20188;-94
2022/04/14 10:48:33;;;;;;;4.83;2.60;;;;;;;17.81;27.80;97560.06;5084425;28;20202;-92
2022/04/14 10:51:27;;;;;;;5.10;3.23;;;;;;;17.26;28.58;97554.09;5106599;28;20251;-89
2022/04/14 10:54:05;;;;;;;4.70;3.50;;;;;;;17.69;28.47;97546.00;5068477;28;20206;-86
2022/04/14 10:56:57;;;;;;;6.17;3.30;;;;;;;17.56;29.26;97549.50;5098905;28;20199;-87
2022/04/14 10:59:55;;;;;;;7.90;3.50;;;;;;;18.15;27.98;97538.53;5059982;28;20191;-87
2022/04/14 11:02:23;;;;;;;6.80;3.40;;;;;;;18.36;26.87;97546.69;5078340;28;20586;-87
2022/04/14 11:04:52;;;;;;;3.97;3.20;;;;;;;18.39;26.57;97507.97;5074898;28;20187;-85
2022/04/14 11:07:23;;;;;;;5.03;3.20;;;;;;;18.77;26.79;97549.94;5073565;28;20220;-85
2022/04/14 11:09:57;;;;;;;8.93;2.93;;;;;;;19.07;26.22;97545.13;5078759;28;20228;-88
2022/04/14 11:12:50;;;;;;;4.63;2.87;;;;;;;18.68;25.90;97511.22;5073682;28;20222;-90
2022/04/14 11:16:10;;;;;;;4.00;3.10;;;;;;;18.85;26.17;97539.75;5095449;28;20436;-88
2022/04/14 11:19:26;;;;;;;4.57;3.20;;;;;;;18.92;26.35;97538.34;5095519;28;20765;-90
2022/04/14 11:22:01;;;;;;;6.37;3.43;;;;;;;19.09;26.26;97538.00;5077320;28;20219;-86
2022/04/14 11:24:40;;;;;;;5.40;3.93;;;;;;;19.26;26.05;97535.00;5101178;28;20234;-86
2022/04/14 11:27:26;;;;;;;4.90;3.10;;;;;;;19.30;25.99;97515.44;5092332;28;20200;-86
2022/04/14 11:30:01;;;;;;;5.00;3.30;;;;;;;19.37;26.21;97516.69;5090939;28;20677;-86
2022/04/14 11:32:38;;;;;;;5.00;3.17;;;;;;;19.51;26.15;97526.19;5074194;28;20190;-88
2022/04/14 11:35:31;;;;;;;6.30;3.43;;;;;;;19.28;26.06;97487.59;5092212;28;20184;-84
2022/04/14 11:38:00;;;;;;;5.17;3.30;;;;;;;19.39;25.97;97503.47;5058156;28;20585;-85
2022/04/14 11:40:39;;;;;;;9.47;4.20;;;;;;;19.32;26.03;97482.00;5075922;28;20200;-88
2022/04/14 11:43:15;;;;;;;5.63;3.97;;;;;;;19.62;25.97;97515.69;5091319;28;20246;-86
2022/04/14 11:46:10;;;;;;;7.53;5.60;;;;;;;19.52;26.29;97488.44;5092481;28;20189;-86
2022/04/14 11:48:38;;;;;;;9.40;5.33;;;;;;;19.32;25.32;97479.38;5092443;28;20188;-87
2022/04/14 11:51:11;;;;;;;33.10;16.60;;;;;;;19.37;25.92;97486.97;5091605;28;20270;-85
2022/04/14 11:53:59;;;;;;;11.80;6.93;;;;;;;19.56;26.57;97503.03;5079226;28;20185;-87
2022/04/14 11:56:56;;;;;;;4.23;3.00;;;;;;;19.35;25.73;97476.56;5094581;28;20199;-86
2022/04/14 11:59:35;;;;;;;7.73;3.90;;;;;;;19.40;26.21;97492.81;5074870;28;20652;-85